createdAt,value
2022-09-26T00:01:32.426Z,35.20
2022-09-26T00:04:09.357Z,35.00
2022-09-26T00:06:36.746Z,34.70
2022-09-26T00:09:03.800Z,34.70
2022-09-26T00:11:33.874Z,34.90
2022-09-26T00:14:05.863Z,34.70
2022-09-26T00:16:33.043Z,34.90
2022-09-26T00:19:00.553Z,34.70
2022-09-26T00:21:29.898Z,34.60
2022-09-26T00:23:58.441Z,34.80
2022-09-26T00:26:27.489Z,34.90
2022-09-26T00:28:55.434Z,34.40
2022-09-26T00:31:32.942Z,34.50
2022-09-26T00:34:00.350Z,34.70
2022-09-26T00:36:37.649Z,34.80
2022-09-26T00:39:06.666Z,35.40
2022-09-26T00:41:33.954Z,35.80
2022-09-26T00:44:03.347Z,35.80
2022-09-26T00:46:47.902Z,36.20
2022-09-26T00:49:31.623Z,35.90
2022-09-26T00:52:24.072Z,35.80
2022-09-26T00:54:55.501Z,35.70
2022-09-26T00:57:42.335Z,35.30
2022-09-26T01:00:12.104Z,34.90
2022-09-26T01:02:40.071Z,34.80
2022-09-26T01:05:08.913Z,34.90
2022-09-26T01:07:36.123Z,34.50
2022-09-26T01:10:07.315Z,34.80
2022-09-26T01:12:36.631Z,35.30
2022-09-26T01:15:05.467Z,35.60
2022-09-26T01:17:32.417Z,35.50
2022-09-26T01:20:43.394Z,35.60
2022-09-26T01:23:42.051Z,35.90
2022-09-26T01:26:12.273Z,35.60
2022-09-26T01:29:06.037Z,34.60
2022-09-26T01:32:16.632Z,34.60
2022-09-26T01:35:01.261Z,34.40
2022-09-26T01:38:00.230Z,35.00
2022-09-26T01:40:51.058Z,34.90
2022-09-26T01:43:47.047Z,34.80
2022-09-26T01:46:46.846Z,34.40
2022-09-26T01:49:13.761Z,34.90
2022-09-26T01:51:56.887Z,35.10
2022-09-26T01:54:34.735Z,34.50
2022-09-26T01:57:05.160Z,34.50
2022-09-26T01:59:44.153Z,34.80
2022-09-26T02:02:26.776Z,34.40
2022-09-26T02:05:03.116Z,34.60
2022-09-26T02:07:38.053Z,34.90
2022-09-26T02:10:18.793Z,34.40
2022-09-26T02:12:55.126Z,34.30
2022-09-26T02:15:25.881Z,34.00
2022-09-26T02:18:03.512Z,33.70
2022-09-26T02:20:37.989Z,33.40
2022-09-26T02:23:05.403Z,33.80
2022-09-26T02:25:33.217Z,33.90
2022-09-26T02:28:00.446Z,34.30
2022-09-26T02:30:27.668Z,34.60
2022-09-26T02:32:54.772Z,34.70
2022-09-26T02:35:41.293Z,35.10
2022-09-26T02:38:08.227Z,35.40
2022-09-26T02:40:51.372Z,35.30
2022-09-26T02:43:33.143Z,34.90
2022-09-26T02:46:12.365Z,34.20
2022-09-26T02:48:54.241Z,34.00
2022-09-26T02:51:58.193Z,34.30
2022-09-26T02:54:46.603Z,33.80
2022-09-26T02:57:33.966Z,34.10
2022-09-26T03:00:10.025Z,33.30
2022-09-26T03:02:46.257Z,32.90
2022-09-26T03:05:19.126Z,32.70
2022-09-26T03:08:01.166Z,33.30
2022-09-26T03:10:30.748Z,34.10
2022-09-26T03:13:04.095Z,34.50
2022-09-26T03:15:34.607Z,34.70
2022-09-26T03:18:05.644Z,34.90
2022-09-26T03:20:32.692Z,35.10
2022-09-26T03:22:59.795Z,35.00
2022-09-26T03:25:28.334Z,34.70
2022-09-26T03:27:55.956Z,34.90
2022-09-26T03:30:23.823Z,34.90
2022-09-26T03:32:51.233Z,34.70
2022-09-26T03:35:18.212Z,35.00
2022-09-26T03:37:45.107Z,35.30
2022-09-26T03:40:13.895Z,35.30
2022-09-26T03:42:41.635Z,34.40
2022-09-26T03:45:10.691Z,33.60
2022-09-26T03:47:42.059Z,33.80
2022-09-26T03:50:09.604Z,33.50
2022-09-26T03:52:36.746Z,33.10
2022-09-26T03:55:05.193Z,33.00
2022-09-26T03:57:32.086Z,33.10
2022-09-26T03:59:58.994Z,33.50
2022-09-26T04:02:26.010Z,33.80
2022-09-26T04:04:53.464Z,33.80
2022-09-26T04:07:20.436Z,33.80
2022-09-26T04:09:47.442Z,33.60
2022-09-26T04:12:14.792Z,33.40
2022-09-26T04:14:43.582Z,32.90
2022-09-26T04:17:10.872Z,33.20
2022-09-26T04:19:37.856Z,33.10
2022-09-26T04:22:05.485Z,32.80
2022-09-26T04:24:33.464Z,32.60
2022-09-26T04:27:01.082Z,32.40
2022-09-26T04:29:29.211Z,32.50
2022-09-26T04:31:56.868Z,32.60
2022-09-26T04:34:27.179Z,32.10
2022-09-26T04:36:54.633Z,32.50
2022-09-26T04:39:21.866Z,32.40
2022-09-26T04:41:48.812Z,32.60
2022-09-26T04:44:16.024Z,32.60
2022-09-26T04:46:42.981Z,32.50
2022-09-26T04:49:10.034Z,32.80
2022-09-26T04:51:38.645Z,32.50
2022-09-26T04:54:05.792Z,32.30
2022-09-26T04:56:33.332Z,32.50
2022-09-26T04:59:01.724Z,32.00
2022-09-26T05:01:28.750Z,32.30
2022-09-26T05:03:58.546Z,32.00
2022-09-26T05:06:25.707Z,31.80
2022-09-26T05:08:52.644Z,31.50
2022-09-26T05:11:22.093Z,31.50
2022-09-26T05:13:54.062Z,31.90
2022-09-26T05:16:21.303Z,31.20
2022-09-26T05:18:52.268Z,31.00
2022-09-26T05:21:19.994Z,30.40
2022-09-26T05:24:05.708Z,30.40
2022-09-26T05:26:38.605Z,31.10
2022-09-26T05:29:08.910Z,30.70
2022-09-26T05:31:38.061Z,30.90
2022-09-26T05:34:17.060Z,31.50
2022-09-26T05:36:47.807Z,32.00
2022-09-26T05:39:33.421Z,32.00
2022-09-26T05:42:00.605Z,31.60
2022-09-26T05:44:28.643Z,31.20
2022-09-26T05:46:57.486Z,31.40
2022-09-26T05:49:25.794Z,31.30
2022-09-26T05:51:53.963Z,31.60
2022-09-26T05:54:21.001Z,31.90
2022-09-26T05:56:48.596Z,31.50
2022-09-26T05:59:15.701Z,31.50
2022-09-26T06:01:42.843Z,31.70
2022-09-26T06:04:10.569Z,31.40
2022-09-26T06:06:38.928Z,31.70
2022-09-26T06:09:07.471Z,31.70
2022-09-26T06:11:34.861Z,32.00
2022-09-26T06:14:01.970Z,31.90
2022-09-26T06:16:29.690Z,32.10
2022-09-26T06:18:57.376Z,32.30
2022-09-26T06:21:24.501Z,32.30
2022-09-26T06:23:51.664Z,32.90
2022-09-26T06:26:23.906Z,33.70
2022-09-26T06:29:00.590Z,34.20
2022-09-26T06:31:29.103Z,34.50
2022-09-26T06:33:56.584Z,34.30
2022-09-26T06:36:24.284Z,34.50
2022-09-26T06:38:52.160Z,34.70
2022-09-26T06:41:19.859Z,34.30
2022-09-26T06:43:47.601Z,34.50
2022-09-26T06:46:16.229Z,35.20
2022-09-26T06:48:43.686Z,35.10
2022-09-26T06:51:14.067Z,35.70
2022-09-26T06:53:41.371Z,34.90
2022-09-26T06:56:08.382Z,34.90
2022-09-26T06:58:35.573Z,35.00
2022-09-26T07:01:03.157Z,35.40
2022-09-26T07:03:30.665Z,35.40
2022-09-26T07:05:58.079Z,35.80
2022-09-26T07:08:49.959Z,36.20
2022-09-26T07:14:02.439Z,36.60
2022-09-26T07:16:30.539Z,36.40
2022-09-26T07:18:57.900Z,36.30
2022-09-26T07:21:24.961Z,36.50
2022-09-26T07:23:56.764Z,36.40
2022-09-26T07:26:23.750Z,36.20
2022-09-26T07:28:54.478Z,36.30
2022-09-26T07:31:25.121Z,35.70
2022-09-26T07:33:52.943Z,35.30
2022-09-26T07:36:21.207Z,35.60
2022-09-26T07:38:49.499Z,35.60
2022-09-26T07:41:17.594Z,35.80
2022-09-26T07:46:50.553Z,36.40
2022-09-26T07:49:36.251Z,36.20
2022-09-26T07:52:03.200Z,35.80
2022-09-26T07:54:30.123Z,36.10
2022-09-26T07:56:57.255Z,36.70
2022-09-26T07:59:24.202Z,37.30
2022-09-26T08:01:52.961Z,37.80
2022-09-26T08:04:20.101Z,37.70
2022-09-26T08:06:50.280Z,38.00
2022-09-26T08:09:17.286Z,38.30
2022-09-26T08:11:44.547Z,37.90
2022-09-26T08:14:11.929Z,37.80
2022-09-26T08:16:42.050Z,37.80
2022-09-26T08:19:10.877Z,37.50
2022-09-26T08:21:37.804Z,37.80
2022-09-26T08:24:04.721Z,37.50
2022-09-26T08:26:31.690Z,38.00
2022-09-26T08:29:00.278Z,38.20
2022-09-26T08:31:28.481Z,37.50
2022-09-26T08:33:55.508Z,36.90
2022-09-26T08:36:22.399Z,36.50
2022-09-26T08:38:52.654Z,36.80
2022-09-26T08:41:59.725Z,37.30
2022-09-26T08:44:44.090Z,37.10
2022-09-26T08:47:43.901Z,37.70
2022-09-26T08:50:33.477Z,37.20
2022-09-26T08:53:29.270Z,37.20
2022-09-26T08:55:58.471Z,37.70
2022-09-26T08:58:52.110Z,38.20
2022-09-26T09:01:35.683Z,38.30
2022-09-26T09:04:10.791Z,37.80
2022-09-26T09:06:38.376Z,38.40
2022-09-26T09:09:06.505Z,39.00
2022-09-26T09:12:14.522Z,39.00
2022-09-26T09:15:24.803Z,39.40
2022-09-26T09:17:55.775Z,39.00
2022-09-26T09:20:56.423Z,38.80
2022-09-26T09:23:47.081Z,38.50
2022-09-26T09:29:19.503Z,38.40
2022-09-26T09:31:47.619Z,38.00
2022-09-26T09:34:42.630Z,37.40
2022-09-26T09:37:19.202Z,37.20
2022-09-26T09:39:49.255Z,37.00
2022-09-26T09:42:28.094Z,36.90
2022-09-26T09:45:04.830Z,37.50
2022-09-26T09:47:37.418Z,37.50
2022-09-26T09:50:47.490Z,37.80
2022-09-26T09:53:33.686Z,38.90
2022-09-26T09:56:20.107Z,38.50
2022-09-26T09:59:03.843Z,37.80
2022-09-26T10:01:41.658Z,37.50
2022-09-26T10:04:08.558Z,37.60
2022-09-26T10:06:46.067Z,37.80
2022-09-26T10:09:39.477Z,38.40
2022-09-26T10:12:19.278Z,38.70
2022-09-26T10:15:11.832Z,37.90
2022-09-26T10:17:39.686Z,38.30
2022-09-26T10:20:17.485Z,36.90
2022-09-26T10:22:45.572Z,36.30
2022-09-26T10:25:22.988Z,36.70
2022-09-26T10:27:55.574Z,37.60
2022-09-26T10:30:33.189Z,37.70
2022-09-26T10:33:02.335Z,38.20
2022-09-26T10:35:46.145Z,38.10
2022-09-26T10:38:23.336Z,38.20
2022-09-26T10:40:55.616Z,38.40
2022-09-26T10:43:30.964Z,38.10
2022-09-26T10:46:24.190Z,37.50
2022-09-26T10:48:58.329Z,37.40
2022-09-26T10:51:43.761Z,37.50
2022-09-26T10:54:19.831Z,36.80
2022-09-26T10:56:51.241Z,36.60
2022-09-26T10:59:25.993Z,36.20
2022-09-26T11:02:05.109Z,36.50
2022-09-26T11:04:54.483Z,35.80
2022-09-26T11:07:26.572Z,35.80
2022-09-26T11:10:00.662Z,36.10
2022-09-26T11:12:37.605Z,36.40
2022-09-26T11:15:12.436Z,36.90
2022-09-26T11:17:48.519Z,36.90
2022-09-26T11:20:51.178Z,36.80
2022-09-26T11:23:41.865Z,36.60
2022-09-26T11:26:35.043Z,36.60
2022-09-26T11:29:37.681Z,36.40
2022-09-26T11:32:07.265Z,36.50
2022-09-26T11:34:36.741Z,37.00
2022-09-26T11:37:06.429Z,37.40
2022-09-26T11:40:09.282Z,37.40
2022-09-26T11:43:08.814Z,37.80
2022-09-26T11:46:15.560Z,38.00
2022-09-26T11:48:42.480Z,38.30
2022-09-26T11:51:36.133Z,38.00
2022-09-26T11:54:23.839Z,38.30
2022-09-26T11:56:58.895Z,38.50
2022-09-26T11:59:40.822Z,38.60
2022-09-26T12:02:10.417Z,38.10
2022-09-26T12:04:57.169Z,38.00
2022-09-26T12:07:43.951Z,37.20
2022-09-26T12:10:29.434Z,37.80
2022-09-26T12:13:08.274Z,38.10
2022-09-26T12:15:56.523Z,36.80
2022-09-26T12:18:46.738Z,35.90
2022-09-26T12:21:31.721Z,35.10
2022-09-26T12:24:19.094Z,34.70
2022-09-26T12:27:04.900Z,35.30
2022-09-26T12:29:55.918Z,35.60
2022-09-26T12:32:34.185Z,35.60
2022-09-26T12:35:20.061Z,34.60
2022-09-26T12:38:08.385Z,34.60
2022-09-26T12:41:20.323Z,34.90
2022-09-26T12:44:14.239Z,34.30
2022-09-26T12:46:53.590Z,35.30
2022-09-26T12:49:47.939Z,36.10
2022-09-26T12:52:27.581Z,36.30
2022-09-26T12:55:26.932Z,36.80
2022-09-26T12:58:13.005Z,37.20
2022-09-26T13:01:17.363Z,36.60
2022-09-26T13:04:23.786Z,35.40
2022-09-26T13:07:19.449Z,35.00
2022-09-26T13:10:11.934Z,35.00
2022-09-26T13:13:00.105Z,36.30
2022-09-26T13:16:06.786Z,36.70
2022-09-26T13:18:45.582Z,37.20
2022-09-26T13:21:32.244Z,38.50
2022-09-26T13:24:08.922Z,38.60
2022-09-26T13:26:43.920Z,38.30
2022-09-26T13:29:18.445Z,38.20
2022-09-26T13:32:23.257Z,37.80
2022-09-26T13:35:16.978Z,37.30
2022-09-26T13:38:22.991Z,37.40
2022-09-26T13:40:58.080Z,37.10
2022-09-26T13:43:53.668Z,36.70
2022-09-26T13:46:40.078Z,37.30
2022-09-26T13:49:32.069Z,36.30
2022-09-26T13:52:20.297Z,36.10
2022-09-26T13:54:58.218Z,35.70
2022-09-26T13:58:04.303Z,35.00
2022-09-26T14:00:31.563Z,34.30
2022-09-26T14:03:11.146Z,33.60
2022-09-26T14:05:44.301Z,33.80
2022-09-26T14:08:53.663Z,34.10
2022-09-26T14:11:42.571Z,34.30
2022-09-26T14:14:18.905Z,35.10
2022-09-26T14:16:53.092Z,35.40
2022-09-26T14:19:36.992Z,34.80
2022-09-26T14:22:34.683Z,34.30
2022-09-26T14:25:02.642Z,34.10
2022-09-26T14:27:36.522Z,34.20
2022-09-26T14:30:24.026Z,33.90
2022-09-26T14:32:54.289Z,33.80
2022-09-26T14:35:27.705Z,33.60
2022-09-26T14:38:20.672Z,34.30
2022-09-26T14:40:58.667Z,34.80
2022-09-26T14:43:30.339Z,34.10
2022-09-26T14:46:17.938Z,34.70
2022-09-26T14:48:46.206Z,34.30
2022-09-26T14:51:16.505Z,34.70
2022-09-26T14:53:53.085Z,34.40
2022-09-26T14:56:27.516Z,33.90
2022-09-26T14:59:14.765Z,33.60
2022-09-26T15:01:43.728Z,34.20
2022-09-26T15:04:20.579Z,34.60
2022-09-26T15:06:52.941Z,35.40
2022-09-26T15:09:29.014Z,35.60
2022-09-26T15:12:00.047Z,34.80
2022-09-26T15:14:37.675Z,36.00
2022-09-26T15:17:06.218Z,36.20
2022-09-26T15:19:38.575Z,36.20
2022-09-26T15:22:15.718Z,35.80
2022-09-26T15:24:42.680Z,35.50
2022-09-26T15:27:27.554Z,35.20
2022-09-26T15:30:11.237Z,35.00
2022-09-26T15:32:38.923Z,35.20
2022-09-26T15:35:06.464Z,34.80
2022-09-26T15:37:36.233Z,34.50
2022-09-26T15:40:16.459Z,34.70
2022-09-26T15:42:58.855Z,33.80
2022-09-26T15:45:30.747Z,34.50
2022-09-26T15:48:04.964Z,34.40
2022-09-26T15:50:43.753Z,34.70
2022-09-26T15:53:30.802Z,34.70
2022-09-26T15:56:10.286Z,34.20
2022-09-26T15:58:40.374Z,34.50
2022-09-26T16:01:15.142Z,34.50
2022-09-26T16:03:47.053Z,34.90
2022-09-26T16:06:28.027Z,34.40
2022-09-26T16:09:23.293Z,34.00
2022-09-26T16:11:56.400Z,33.40
2022-09-26T16:14:26.769Z,33.10
2022-09-26T16:17:00.798Z,33.20
2022-09-26T16:19:32.146Z,33.80
2022-09-26T16:22:19.150Z,34.00
2022-09-26T16:24:46.125Z,33.90
2022-09-26T16:27:34.201Z,33.50
2022-09-26T16:30:04.920Z,33.60
2022-09-26T16:32:35.353Z,33.70
2022-09-26T16:35:17.612Z,33.70
2022-09-26T16:37:46.781Z,33.90
2022-09-26T16:40:20.408Z,34.00
2022-09-26T16:42:47.542Z,35.00
2022-09-26T16:45:15.414Z,34.40
2022-09-26T16:47:44.760Z,34.40
2022-09-26T16:50:43.879Z,33.20
2022-09-26T16:53:11.469Z,33.90
2022-09-26T16:55:38.807Z,34.30
2022-09-26T16:58:06.360Z,34.40
2022-09-26T17:00:53.674Z,34.10
2022-09-26T17:03:29.690Z,34.20
2022-09-26T17:05:58.254Z,34.30
2022-09-26T17:08:26.723Z,34.10
2022-09-26T17:10:58.112Z,33.60
2022-09-26T17:13:27.407Z,33.60
2022-09-26T17:16:02.190Z,33.80
2022-09-26T17:18:32.564Z,33.90
2022-09-26T17:20:59.955Z,34.00
2022-09-26T17:23:39.937Z,34.40
2022-09-26T17:26:12.435Z,34.10
2022-09-26T17:28:44.924Z,34.30
2022-09-26T17:31:20.437Z,33.90
2022-09-26T17:33:51.317Z,33.40
2022-09-26T17:36:22.567Z,33.90
2022-09-26T17:38:50.492Z,33.70
2022-09-26T17:41:17.654Z,34.20
2022-09-26T17:43:45.708Z,34.40
2022-09-26T17:46:16.161Z,34.80
2022-09-26T17:48:44.503Z,34.30
2022-09-26T17:51:14.997Z,34.60
2022-09-26T17:53:50.115Z,34.30
2022-09-26T17:56:21.638Z,34.70
2022-09-26T17:58:49.805Z,34.20
2022-09-26T18:01:28.083Z,34.20
2022-09-26T18:04:00.356Z,33.80
2022-09-26T18:06:31.575Z,33.40
2022-09-26T18:09:06.387Z,33.10
2022-09-26T18:11:40.635Z,33.30
2022-09-26T18:14:14.528Z,33.00
2022-09-26T18:16:46.712Z,33.40
2022-09-26T18:19:13.664Z,32.60
2022-09-26T18:21:40.997Z,32.90
2022-09-26T18:24:19.295Z,32.80
2022-09-26T18:26:51.477Z,33.10
2022-09-26T18:29:28.289Z,33.20
2022-09-26T19:57:24.738Z,33.00
2022-09-26T19:59:55.908Z,32.50
2022-09-26T20:11:13.656Z,32.40
2022-09-26T20:13:59.318Z,32.20
2022-09-26T20:16:26.825Z,32.00
2022-09-26T20:18:55.866Z,32.60
2022-09-26T20:21:29.347Z,32.50
2022-09-26T20:24:06.148Z,32.90
2022-09-26T20:26:34.031Z,32.20
2022-09-26T20:29:00.962Z,31.90
2022-09-26T20:31:29.057Z,31.90
2022-09-26T20:34:00.758Z,32.10
2022-09-26T20:36:31.337Z,32.30
2022-09-26T20:39:05.688Z,32.00
2022-09-26T20:41:37.660Z,32.10
2022-09-26T20:44:24.613Z,32.30
2022-09-26T20:46:56.385Z,32.30
2022-09-26T20:52:27.345Z,32.10
2022-09-26T20:54:55.518Z,32.00
2022-09-26T20:57:25.045Z,31.30
2022-09-26T20:59:52.290Z,31.00
2022-09-26T21:02:29.898Z,31.40
2022-09-26T21:04:57.708Z,31.90
2022-09-26T21:07:29.001Z,31.20
2022-09-26T21:09:55.965Z,30.90
2022-09-26T21:12:23.420Z,30.40
2022-09-26T21:14:52.502Z,30.40
2022-09-26T21:17:27.382Z,30.70
2022-09-26T21:19:55.672Z,31.40
2022-09-26T21:22:29.967Z,31.60
2022-09-26T21:24:57.576Z,32.10
2022-09-26T21:27:27.422Z,31.90
2022-09-26T21:29:57.234Z,31.30
2022-09-26T21:32:25.858Z,31.30
2022-09-26T21:35:03.726Z,31.60
2022-09-26T21:37:31.216Z,32.30
2022-09-26T21:40:00.445Z,31.30
2022-09-26T21:42:29.350Z,31.30
2022-09-26T21:45:06.382Z,31.90
2022-09-26T21:47:36.675Z,31.30
2022-09-26T21:50:08.469Z,31.70
2022-09-26T21:52:42.573Z,31.10
2022-09-26T21:55:13.847Z,30.90
2022-09-26T21:57:43.635Z,31.40
2022-09-26T22:00:12.549Z,31.70
2022-09-26T22:02:41.279Z,32.50
2022-09-26T22:05:10.401Z,32.10
2022-09-26T22:07:37.856Z,32.30
2022-09-26T22:10:06.338Z,31.90
2022-09-26T22:12:33.672Z,31.90
2022-09-26T22:15:00.931Z,32.00
2022-09-26T22:17:28.857Z,32.40
2022-09-26T22:19:55.899Z,32.60
2022-09-26T22:22:23.128Z,32.30
2022-09-26T22:24:50.246Z,32.30
2022-09-26T22:27:17.468Z,32.70
2022-09-26T22:29:44.636Z,33.00
2022-09-26T22:32:11.817Z,32.90
2022-09-26T22:34:38.756Z,32.90
2022-09-26T22:37:06.256Z,32.50
2022-09-26T22:39:33.183Z,31.90
2022-09-26T22:42:00.130Z,32.20
2022-09-26T22:44:27.073Z,31.90
2022-09-26T22:46:54.072Z,32.60
2022-09-26T22:49:21.092Z,32.80
2022-09-26T22:51:48.236Z,32.80
2022-09-26T22:54:15.334Z,32.10
2022-09-26T22:56:42.487Z,32.20
2022-09-26T22:59:10.489Z,32.30
2022-09-26T23:01:37.821Z,32.10
2022-09-26T23:04:05.292Z,32.50
2022-09-26T23:06:32.551Z,32.30
2022-09-26T23:08:59.499Z,31.80
2022-09-26T23:11:28.238Z,32.10
2022-09-26T23:13:56.358Z,32.40
2022-09-26T23:16:27.475Z,33.00
2022-09-26T23:18:54.772Z,33.00
2022-09-26T23:21:23.904Z,32.80
2022-09-26T23:23:53.292Z,32.50
2022-09-26T23:26:23.830Z,33.10
2022-09-26T23:28:52.132Z,32.80
2022-09-26T23:31:20.085Z,32.80
2022-09-26T23:33:47.231Z,31.90
2022-09-26T23:36:14.198Z,32.00
2022-09-26T23:38:41.832Z,31.70
2022-09-26T23:41:10.624Z,31.80
2022-09-26T23:43:38.563Z,31.40
2022-09-26T23:46:06.328Z,32.40
2022-09-26T23:48:34.133Z,32.30
2022-09-26T23:51:02.256Z,31.90
2022-09-26T23:53:29.918Z,32.50
2022-09-26T23:56:09.066Z,31.90
2022-09-26T23:58:37.379Z,32.30
